sensor_id;sensor_type;location;lat;lon;timestamp;temperature;humidity
68990;DHT22;56046;47.270;11.368;2022-10-16T00:00:17;10.71;97.78
68990;DHT22;56046;47.270;11.368;2022-10-16T00:02:42;10.62;97.96
68990;DHT22;56046;47.270;11.368;2022-10-16T00:05:07;10.57;97.97
68990;DHT22;56046;47.270;11.368;2022-10-16T00:07:33;10.54;98.00
68990;DHT22;56046;47.270;11.368;2022-10-16T00:09:58;10.51;98.20
68990;DHT22;56046;47.270;11.368;2022-10-16T00:12:24;10.51;98.13
68990;DHT22;56046;47.270;11.368;2022-10-16T00:14:49;10.44;98.11
68990;DHT22;56046;47.270;11.368;2022-10-16T00:17:14;10.37;98.31
68990;DHT22;56046;47.270;11.368;2022-10-16T00:19:40;10.38;98.79
68990;DHT22;56046;47.270;11.368;2022-10-16T00:22:05;10.43;98.66
68990;DHT22;56046;47.270;11.368;2022-10-16T00:24:31;10.55;98.93
68990;DHT22;56046;47.270;11.368;2022-10-16T00:26:56;10.69;99.16
68990;DHT22;56046;47.270;11.368;2022-10-16T00:29:22;10.82;98.68
68990;DHT22;56046;47.270;11.368;2022-10-16T00:31:47;10.99;98.62
68990;DHT22;56046;47.270;11.368;2022-10-16T00:34:13;11.13;98.46
68990;DHT22;56046;47.270;11.368;2022-10-16T00:36:38;11.17;98.46
68990;DHT22;56046;47.270;11.368;2022-10-16T00:39:04;11.31;98.44
68990;DHT22;56046;47.270;11.368;2022-10-16T00:41:30;11.46;97.99
68990;DHT22;56046;47.270;11.368;2022-10-16T00:43:57;11.51;97.90
68990;DHT22;56046;47.270;11.368;2022-10-16T00:49:00;11.36;97.70
68990;DHT22;56046;47.270;11.368;2022-10-16T00:51:34;11.30;97.70
68990;DHT22;56046;47.270;11.368;2022-10-16T00:54:02;11.26;97.35
68990;DHT22;56046;47.270;11.368;2022-10-16T00:56:28;11.22;97.52
68990;DHT22;56046;47.270;11.368;2022-10-16T00:58:54;11.19;97.48
68990;DHT22;56046;47.270;11.368;2022-10-16T01:01:19;11.13;97.40
68990;DHT22;56046;47.270;11.368;2022-10-16T01:03:45;11.05;97.39
68990;DHT22;56046;47.270;11.368;2022-10-16T01:06:32;10.91;97.57
68990;DHT22;56046;47.270;11.368;2022-10-16T01:09:30;10.85;97.50
68990;DHT22;56046;47.270;11.368;2022-10-16T01:22:18;10.68;97.80
68990;DHT22;56046;47.270;11.368;2022-10-16T01:24:48;10.64;97.94
68990;DHT22;56046;47.270;11.368;2022-10-16T01:27:32;10.60;98.20
68990;DHT22;56046;47.270;11.368;2022-10-16T01:30:17;10.53;98.20
68990;DHT22;56046;47.270;11.368;2022-10-16T01:35:25;10.51;98.15
68990;DHT22;56046;47.270;11.368;2022-10-16T01:38:16;10.48;98.35
68990;DHT22;56046;47.270;11.368;2022-10-16T01:40:46;10.53;98.32
68990;DHT22;56046;47.270;11.368;2022-10-16T01:43:29;10.61;98.30
68990;DHT22;56046;47.270;11.368;2022-10-16T01:45:55;10.58;98.17
68990;DHT22;56046;47.270;11.368;2022-10-16T01:48:22;10.62;98.60
68990;DHT22;56046;47.270;11.368;2022-10-16T01:51:03;10.67;98.53
68990;DHT22;56046;47.270;11.368;2022-10-16T01:53:30;10.71;98.23
68990;DHT22;56046;47.270;11.368;2022-10-16T01:55:58;10.75;98.18
68990;DHT22;56046;47.270;11.368;2022-10-16T01:58:25;10.72;98.18
68990;DHT22;56046;47.270;11.368;2022-10-16T02:00:53;10.75;98.52
68990;DHT22;56046;47.270;11.368;2022-10-16T02:03:20;10.82;98.12
68990;DHT22;56046;47.270;11.368;2022-10-16T02:08:14;10.93;98.27
68990;DHT22;56046;47.270;11.368;2022-10-16T02:10:40;10.99;97.96
68990;DHT22;56046;47.270;11.368;2022-10-16T02:13:10;10.98;97.94
68990;DHT22;56046;47.270;11.368;2022-10-16T02:15:37;11.00;97.91
68990;DHT22;56046;47.270;11.368;2022-10-16T02:18:04;11.06;97.69
68990;DHT22;56046;47.270;11.368;2022-10-16T02:20:34;11.02;97.81
68990;DHT22;56046;47.270;11.368;2022-10-16T02:23:02;11.06;97.83
68990;DHT22;56046;47.270;11.368;2022-10-16T02:25:35;11.09;97.74
68990;DHT22;56046;47.270;11.368;2022-10-16T02:28:10;11.09;97.75
68990;DHT22;56046;47.270;11.368;2022-10-16T02:30:57;11.09;97.56
68990;DHT22;56046;47.270;11.368;2022-10-16T02:33:25;11.16;97.49
68990;DHT22;56046;47.270;11.368;2022-10-16T02:35:52;11.15;97.55
68990;DHT22;56046;47.270;11.368;2022-10-16T02:38:19;11.10;97.54
68990;DHT22;56046;47.270;11.368;2022-10-16T02:40:45;11.08;97.65
68990;DHT22;56046;47.270;11.368;2022-10-16T02:43:11;11.05;97.68
68990;DHT22;56046;47.270;11.368;2022-10-16T02:45:37;11.09;97.43
68990;DHT22;56046;47.270;11.368;2022-10-16T02:48:03;11.09;97.21
68990;DHT22;56046;47.270;11.368;2022-10-16T02:50:28;11.12;97.21
68990;DHT22;56046;47.270;11.368;2022-10-16T02:52:54;11.09;97.26
68990;DHT22;56046;47.270;11.368;2022-10-16T02:55:19;11.12;97.22
68990;DHT22;56046;47.270;11.368;2022-10-16T02:57:44;11.02;97.18
68990;DHT22;56046;47.270;11.368;2022-10-16T03:00:13;11.08;97.35
68990;DHT22;56046;47.270;11.368;2022-10-16T03:02:38;11.13;97.21
68990;DHT22;56046;47.270;11.368;2022-10-16T03:05:04;11.05;97.24
68990;DHT22;56046;47.270;11.368;2022-10-16T03:07:30;11.06;97.22
68990;DHT22;56046;47.270;11.368;2022-10-16T03:09:55;10.98;96.96
68990;DHT22;56046;47.270;11.368;2022-10-16T03:12:21;10.93;97.04
68990;DHT22;56046;47.270;11.368;2022-10-16T03:14:47;10.93;96.95
68990;DHT22;56046;47.270;11.368;2022-10-16T03:17:12;10.88;96.94
68990;DHT22;56046;47.270;11.368;2022-10-16T03:19:39;10.85;97.05
68990;DHT22;56046;47.270;11.368;2022-10-16T03:22:04;10.83;96.93
68990;DHT22;56046;47.270;11.368;2022-10-16T03:24:30;10.79;96.91
68990;DHT22;56046;47.270;11.368;2022-10-16T03:26:55;10.73;96.92
68990;DHT22;56046;47.270;11.368;2022-10-16T03:29:20;10.79;96.83
68990;DHT22;56046;47.270;11.368;2022-10-16T03:31:46;10.71;96.75
68990;DHT22;56046;47.270;11.368;2022-10-16T03:34:13;10.69;97.59
68990;DHT22;56046;47.270;11.368;2022-10-16T03:36:39;10.76;97.77
68990;DHT22;56046;47.270;11.368;2022-10-16T03:39:04;10.82;97.57
68990;DHT22;56046;47.270;11.368;2022-10-16T03:41:29;10.85;97.47
68990;DHT22;56046;47.270;11.368;2022-10-16T03:43:55;10.83;97.42
68990;DHT22;56046;47.270;11.368;2022-10-16T03:46:20;10.93;97.31
68990;DHT22;56046;47.270;11.368;2022-10-16T03:48:46;11.05;96.98
68990;DHT22;56046;47.270;11.368;2022-10-16T03:51:11;11.00;96.92
68990;DHT22;56046;47.270;11.368;2022-10-16T03:53:37;10.95;97.06
68990;DHT22;56046;47.270;11.368;2022-10-16T03:56:02;10.93;97.36
68990;DHT22;56046;47.270;11.368;2022-10-16T03:58:28;10.86;97.70
68990;DHT22;56046;47.270;11.368;2022-10-16T04:00:54;10.88;97.61
68990;DHT22;56046;47.270;11.368;2022-10-16T04:03:19;10.92;97.54
68990;DHT22;56046;47.270;11.368;2022-10-16T04:05:46;10.91;97.41
68990;DHT22;56046;47.270;11.368;2022-10-16T04:08:12;10.92;97.23
68990;DHT22;56046;47.270;11.368;2022-10-16T04:10:37;10.89;97.16
68990;DHT22;56046;47.270;11.368;2022-10-16T04:13:03;10.83;97.28
68990;DHT22;56046;47.270;11.368;2022-10-16T04:15:28;10.89;97.35
68990;DHT22;56046;47.270;11.368;2022-10-16T04:17:54;10.88;97.25
68990;DHT22;56046;47.270;11.368;2022-10-16T04:20:19;10.86;97.29
68990;DHT22;56046;47.270;11.368;2022-10-16T04:22:45;10.83;97.27
68990;DHT22;56046;47.270;11.368;2022-10-16T04:25:10;10.76;97.46
68990;DHT22;56046;47.270;11.368;2022-10-16T04:27:37;10.79;97.39
68990;DHT22;56046;47.270;11.368;2022-10-16T04:30:03;10.79;97.38
68990;DHT22;56046;47.270;11.368;2022-10-16T04:32:29;10.81;97.39
68990;DHT22;56046;47.270;11.368;2022-10-16T04:34:54;10.88;97.39
68990;DHT22;56046;47.270;11.368;2022-10-16T04:37:24;10.86;97.29
68990;DHT22;56046;47.270;11.368;2022-10-16T04:39:49;10.89;97.29
68990;DHT22;56046;47.270;11.368;2022-10-16T04:42:15;10.91;97.25
68990;DHT22;56046;47.270;11.368;2022-10-16T04:44:40;10.89;97.26
68990;DHT22;56046;47.270;11.368;2022-10-16T04:47:06;10.86;97.22
68990;DHT22;56046;47.270;11.368;2022-10-16T04:49:31;10.85;97.12
68990;DHT22;56046;47.270;11.368;2022-10-16T04:51:56;10.82;97.18
68990;DHT22;56046;47.270;11.368;2022-10-16T04:54:22;10.82;97.26
68990;DHT22;56046;47.270;11.368;2022-10-16T04:56:47;10.81;97.33
68990;DHT22;56046;47.270;11.368;2022-10-16T04:59:15;10.76;97.24
68990;DHT22;56046;47.270;11.368;2022-10-16T05:01:41;10.72;97.25
68990;DHT22;56046;47.270;11.368;2022-10-16T05:04:06;10.71;97.30
68990;DHT22;56046;47.270;11.368;2022-10-16T05:06:32;10.68;97.16
68990;DHT22;56046;47.270;11.368;2022-10-16T05:08:58;10.71;97.06
68990;DHT22;56046;47.270;11.368;2022-10-16T05:11:23;10.61;96.98
68990;DHT22;56046;47.270;11.368;2022-10-16T05:13:49;10.50;97.07
68990;DHT22;56046;47.270;11.368;2022-10-16T05:16:14;10.55;97.65
68990;DHT22;56046;47.270;11.368;2022-10-16T05:18:40;10.58;97.27
68990;DHT22;56046;47.270;11.368;2022-10-16T05:21:05;10.53;97.17
68990;DHT22;56046;47.270;11.368;2022-10-16T05:23:31;10.41;97.07
68990;DHT22;56046;47.270;11.368;2022-10-16T05:25:57;10.34;97.15
68990;DHT22;56046;47.270;11.368;2022-10-16T05:28:28;10.29;97.63
68990;DHT22;56046;47.270;11.368;2022-10-16T05:30:54;10.24;97.82
68990;DHT22;56046;47.270;11.368;2022-10-16T05:33:21;10.26;97.58
68990;DHT22;56046;47.270;11.368;2022-10-16T05:35:46;10.30;97.53
68990;DHT22;56046;47.270;11.368;2022-10-16T05:38:12;10.32;97.49
68990;DHT22;56046;47.270;11.368;2022-10-16T05:40:38;10.29;97.65
68990;DHT22;56046;47.270;11.368;2022-10-16T05:43:03;10.34;98.04
68990;DHT22;56046;47.270;11.368;2022-10-16T05:45:29;10.37;97.93
68990;DHT22;56046;47.270;11.368;2022-10-16T05:47:54;10.37;97.76
68990;DHT22;56046;47.270;11.368;2022-10-16T05:50:19;10.41;97.55
68990;DHT22;56046;47.270;11.368;2022-10-16T05:52:45;10.45;97.51
68990;DHT22;56046;47.270;11.368;2022-10-16T05:55:10;10.51;97.37
68990;DHT22;56046;47.270;11.368;2022-10-16T05:57:36;10.60;97.26
68990;DHT22;56046;47.270;11.368;2022-10-16T06:00:03;10.65;97.25
68990;DHT22;56046;47.270;11.368;2022-10-16T06:02:28;10.72;97.19
68990;DHT22;56046;47.270;11.368;2022-10-16T06:04:54;10.81;97.26
68990;DHT22;56046;47.270;11.368;2022-10-16T06:07:20;10.89;97.37
68990;DHT22;56046;47.270;11.368;2022-10-16T06:09:51;11.06;97.10
68990;DHT22;56046;47.270;11.368;2022-10-16T06:12:17;11.16;96.84
68990;DHT22;56046;47.270;11.368;2022-10-16T06:14:42;11.29;96.62
68990;DHT22;56046;47.270;11.368;2022-10-16T06:17:08;11.40;96.51
68990;DHT22;56046;47.270;11.368;2022-10-16T06:19:33;11.53;96.24
68990;DHT22;56046;47.270;11.368;2022-10-16T06:21:58;11.73;95.75
68990;DHT22;56046;47.270;11.368;2022-10-16T06:24:24;11.91;95.10
68990;DHT22;56046;47.270;11.368;2022-10-16T06:26:50;12.01;94.93
68990;DHT22;56046;47.270;11.368;2022-10-16T06:29:16;12.16;94.53
68990;DHT22;56046;47.270;11.368;2022-10-16T06:31:41;12.22;94.27
68990;DHT22;56046;47.270;11.368;2022-10-16T06:34:09;12.26;93.79
68990;DHT22;56046;47.270;11.368;2022-10-16T06:36:36;12.23;93.82
68990;DHT22;56046;47.270;11.368;2022-10-16T06:39:01;12.09;94.07
68990;DHT22;56046;47.270;11.368;2022-10-16T06:41:27;12.01;93.92
68990;DHT22;56046;47.270;11.368;2022-10-16T06:43:52;11.86;94.14
68990;DHT22;56046;47.270;11.368;2022-10-16T06:46:21;11.85;94.35
68990;DHT22;56046;47.270;11.368;2022-10-16T06:48:47;11.81;94.65
68990;DHT22;56046;47.270;11.368;2022-10-16T06:51:14;11.78;94.61
68990;DHT22;56046;47.270;11.368;2022-10-16T06:53:42;11.65;94.76
68990;DHT22;56046;47.270;11.368;2022-10-16T06:58:46;11.46;95.41
68990;DHT22;56046;47.270;11.368;2022-10-16T07:01:13;11.64;94.91
68990;DHT22;56046;47.270;11.368;2022-10-16T07:03:40;11.78;94.40
68990;DHT22;56046;47.270;11.368;2022-10-16T07:06:07;11.84;94.73
68990;DHT22;56046;47.270;11.368;2022-10-16T07:08:37;11.95;94.25
68990;DHT22;56046;47.270;11.368;2022-10-16T07:11:05;12.11;93.65
68990;DHT22;56046;47.270;11.368;2022-10-16T07:13:40;12.25;93.57
68990;DHT22;56046;47.270;11.368;2022-10-16T07:16:13;12.30;93.32
68990;DHT22;56046;47.270;11.368;2022-10-16T07:18:40;12.43;93.22
68990;DHT22;56046;47.270;11.368;2022-10-16T07:21:15;12.56;92.75
68990;DHT22;56046;47.270;11.368;2022-10-16T07:23:41;12.71;92.43
68990;DHT22;56046;47.270;11.368;2022-10-16T07:26:09;12.78;92.14
68990;DHT22;56046;47.270;11.368;2022-10-16T07:28:35;12.85;92.00
68990;DHT22;56046;47.270;11.368;2022-10-16T07:31:06;12.92;91.73
68990;DHT22;56046;47.270;11.368;2022-10-16T07:33:34;13.02;91.46
68990;DHT22;56046;47.270;11.368;2022-10-16T07:35:59;13.12;91.12
68990;DHT22;56046;47.270;11.368;2022-10-16T07:38:25;13.25;90.72
68990;DHT22;56046;47.270;11.368;2022-10-16T07:40:58;13.36;90.54
68990;DHT22;56046;47.270;11.368;2022-10-16T07:43:25;13.43;90.19
68990;DHT22;56046;47.270;11.368;2022-10-16T07:45:50;13.50;89.78
68990;DHT22;56046;47.270;11.368;2022-10-16T07:48:17;13.59;89.27
68990;DHT22;56046;47.270;11.368;2022-10-16T07:50:43;13.77;88.51
68990;DHT22;56046;47.270;11.368;2022-10-16T07:53:09;13.98;87.79
68990;DHT22;56046;47.270;11.368;2022-10-16T07:55:35;14.24;86.38
68990;DHT22;56046;47.270;11.368;2022-10-16T07:58:00;14.46;86.04
68990;DHT22;56046;47.270;11.368;2022-10-16T08:00:26;14.66;85.23
68990;DHT22;56046;47.270;11.368;2022-10-16T08:02:51;14.92;84.37
68990;DHT22;56046;47.270;11.368;2022-10-16T08:05:17;15.19;83.30
68990;DHT22;56046;47.270;11.368;2022-10-16T08:07:42;15.56;81.81
68990;DHT22;56046;47.270;11.368;2022-10-16T08:10:18;15.83;80.83
68990;DHT22;56046;47.270;11.368;2022-10-16T08:12:45;15.98;79.54
68990;DHT22;56046;47.270;11.368;2022-10-16T08:15:10;16.10;79.60
68990;DHT22;56046;47.270;11.368;2022-10-16T08:17:36;16.31;78.05
68990;DHT22;56046;47.270;11.368;2022-10-16T08:20:02;16.48;77.20
68990;DHT22;56046;47.270;11.368;2022-10-16T08:22:27;16.62;77.43
68990;DHT22;56046;47.270;11.368;2022-10-16T08:24:53;16.80;77.68
68990;DHT22;56046;47.270;11.368;2022-10-16T08:27:18;16.87;75.73
68990;DHT22;56046;47.270;11.368;2022-10-16T08:29:44;16.94;76.62
68990;DHT22;56046;47.270;11.368;2022-10-16T08:32:09;16.99;76.62
68990;DHT22;56046;47.270;11.368;2022-10-16T08:34:35;17.11;76.83
68990;DHT22;56046;47.270;11.368;2022-10-16T08:37:00;16.73;77.71
68990;DHT22;56046;47.270;11.368;2022-10-16T08:39:25;16.47;78.46
68990;DHT22;56046;47.270;11.368;2022-10-16T08:47:16;15.86;79.83
68990;DHT22;56046;47.270;11.368;2022-10-16T08:49:50;15.82;79.66
68990;DHT22;56046;47.270;11.368;2022-10-16T08:52:20;15.93;79.34
68990;DHT22;56046;47.270;11.368;2022-10-16T08:54:48;15.98;78.30
68990;DHT22;56046;47.270;11.368;2022-10-16T08:57:21;16.14;78.36
68990;DHT22;56046;47.270;11.368;2022-10-16T08:59:47;16.26;77.30
68990;DHT22;56046;47.270;11.368;2022-10-16T09:02:33;16.47;76.85
68990;DHT22;56046;47.270;11.368;2022-10-16T09:05:16;16.52;75.57
68990;DHT22;56046;47.270;11.368;2022-10-16T09:18:54;16.81;73.57
68990;DHT22;56046;47.270;11.368;2022-10-16T09:21:25;16.91;72.90
68990;DHT22;56046;47.270;11.368;2022-10-16T09:23:54;16.97;72.95
68990;DHT22;56046;47.270;11.368;2022-10-16T09:26:22;17.07;71.67
68990;DHT22;56046;47.270;11.368;2022-10-16T09:28:47;17.13;72.02
68990;DHT22;56046;47.270;11.368;2022-10-16T09:31:18;17.14;71.37
68990;DHT22;56046;47.270;11.368;2022-10-16T09:33:48;17.20;71.68
68990;DHT22;56046;47.270;11.368;2022-10-16T09:36:15;17.28;70.45
68990;DHT22;56046;47.270;11.368;2022-10-16T09:38:42;17.34;70.51
68990;DHT22;56046;47.270;11.368;2022-10-16T09:41:21;17.45;71.56
68990;DHT22;56046;47.270;11.368;2022-10-16T09:43:59;17.53;71.19
68990;DHT22;56046;47.270;11.368;2022-10-16T09:46:35;17.61;71.83
68990;DHT22;56046;47.270;11.368;2022-10-16T09:49:03;17.63;70.67
68990;DHT22;56046;47.270;11.368;2022-10-16T09:51:37;17.66;70.34
68990;DHT22;56046;47.270;11.368;2022-10-16T09:54:22;17.80;69.21
68990;DHT22;56046;47.270;11.368;2022-10-16T09:56:48;17.87;68.15
68990;DHT22;56046;47.270;11.368;2022-10-16T09:59:21;17.94;68.12
68990;DHT22;56046;47.270;11.368;2022-10-16T10:01:55;18.07;67.66
68990;DHT22;56046;47.270;11.368;2022-10-16T10:04:22;18.16;67.45
68990;DHT22;56046;47.270;11.368;2022-10-16T10:06:50;18.23;68.32
68990;DHT22;56046;47.270;11.368;2022-10-16T10:14:17;18.31;67.41
68990;DHT22;56046;47.270;11.368;2022-10-16T10:16:43;18.45;67.61
68990;DHT22;56046;47.270;11.368;2022-10-16T10:19:23;18.49;68.08
68990;DHT22;56046;47.270;11.368;2022-10-16T10:21:50;18.48;67.49
68990;DHT22;56046;47.270;11.368;2022-10-16T10:24:18;18.64;67.98
68990;DHT22;56046;47.270;11.368;2022-10-16T10:26:57;18.71;67.83
68990;DHT22;56046;47.270;11.368;2022-10-16T10:32:32;18.85;66.73
68990;DHT22;56046;47.270;11.368;2022-10-16T10:38:02;19.06;65.85
68990;DHT22;56046;47.270;11.368;2022-10-16T10:43:36;19.23;63.63
68990;DHT22;56046;47.270;11.368;2022-10-16T10:46:08;19.28;63.35
68990;DHT22;56046;47.270;11.368;2022-10-16T11:08:17;19.95;60.09
68990;DHT22;56046;47.270;11.368;2022-10-16T11:11:00;20.05;59.98
68990;DHT22;56046;47.270;11.368;2022-10-16T11:13:38;20.14;60.49
68990;DHT22;56046;47.270;11.368;2022-10-16T11:16:15;20.19;60.14
68990;DHT22;56046;47.270;11.368;2022-10-16T11:21:51;20.34;59.92
68990;DHT22;56046;47.270;11.368;2022-10-16T11:27:19;20.44;58.14
68990;DHT22;56046;47.270;11.368;2022-10-16T11:29:59;20.48;58.31
68990;DHT22;56046;47.270;11.368;2022-10-16T11:32:35;20.54;56.81
68990;DHT22;56046;47.270;11.368;2022-10-16T11:35:15;20.51;56.96
68990;DHT22;56046;47.270;11.368;2022-10-16T11:37:44;20.57;56.30
68990;DHT22;56046;47.270;11.368;2022-10-16T11:40:32;20.57;55.98
68990;DHT22;56046;47.270;11.368;2022-10-16T11:43:17;20.57;56.99
68990;DHT22;56046;47.270;11.368;2022-10-16T11:45:51;20.58;56.58
68990;DHT22;56046;47.270;11.368;2022-10-16T11:48:41;20.60;56.12
68990;DHT22;56046;47.270;11.368;2022-10-16T11:51:16;20.57;55.59
68990;DHT22;56046;47.270;11.368;2022-10-16T11:53:53;20.58;55.02
68990;DHT22;56046;47.270;11.368;2022-10-16T11:56:21;20.58;56.13
68990;DHT22;56046;47.270;11.368;2022-10-16T12:01:26;20.58;54.58
68990;DHT22;56046;47.270;11.368;2022-10-16T12:04:06;20.61;55.02
68990;DHT22;56046;47.270;11.368;2022-10-16T12:06:47;20.71;55.08
68990;DHT22;56046;47.270;11.368;2022-10-16T12:09:31;20.79;55.33
68990;DHT22;56046;47.270;11.368;2022-10-16T12:11:57;20.85;55.40
68990;DHT22;56046;47.270;11.368;2022-10-16T12:14:34;20.81;55.66
68990;DHT22;56046;47.270;11.368;2022-10-16T12:20:00;20.94;55.13
68990;DHT22;56046;47.270;11.368;2022-10-16T12:22:29;20.95;55.37
68990;DHT22;56046;47.270;11.368;2022-10-16T12:24:55;20.99;55.81
68990;DHT22;56046;47.270;11.368;2022-10-16T12:27:30;20.98;56.15
68990;DHT22;56046;47.270;11.368;2022-10-16T12:29:59;20.96;55.72
68990;DHT22;56046;47.270;11.368;2022-10-16T12:32:37;20.98;56.36
68990;DHT22;56046;47.270;11.368;2022-10-16T12:35:06;21.03;56.50
68990;DHT22;56046;47.270;11.368;2022-10-16T12:37:41;21.03;55.65
68990;DHT22;56046;47.270;11.368;2022-10-16T12:40:16;21.06;57.11
68990;DHT22;56046;47.270;11.368;2022-10-16T12:42:48;20.98;56.37
68990;DHT22;56046;47.270;11.368;2022-10-16T12:45:32;21.00;56.04
68990;DHT22;56046;47.270;11.368;2022-10-16T12:48:00;21.05;55.86
68990;DHT22;56046;47.270;11.368;2022-10-16T12:50:33;21.06;56.39
68990;DHT22;56046;47.270;11.368;2022-10-16T12:53:00;21.13;55.51
68990;DHT22;56046;47.270;11.368;2022-10-16T12:55:32;21.15;56.31
68990;DHT22;56046;47.270;11.368;2022-10-16T13:01:02;21.24;54.39
68990;DHT22;56046;47.270;11.368;2022-10-16T13:28:34;21.33;54.60
68990;DHT22;56046;47.270;11.368;2022-10-16T13:31:01;21.32;54.42
68990;DHT22;56046;47.270;11.368;2022-10-16T13:35:57;21.32;54.70
68990;DHT22;56046;47.270;11.368;2022-10-16T13:38:25;21.30;54.91
68990;DHT22;56046;47.270;11.368;2022-10-16T13:43:31;21.32;55.23
68990;DHT22;56046;47.270;11.368;2022-10-16T13:46:04;21.40;54.33
68990;DHT22;56046;47.270;11.368;2022-10-16T13:48:31;21.33;53.98
68990;DHT22;56046;47.270;11.368;2022-10-16T13:53:36;21.32;54.79
68990;DHT22;56046;47.270;11.368;2022-10-16T13:56:04;21.33;54.48
68990;DHT22;56046;47.270;11.368;2022-10-16T13:58:30;21.33;54.16
68990;DHT22;56046;47.270;11.368;2022-10-16T14:01:04;21.34;54.17
68990;DHT22;56046;47.270;11.368;2022-10-16T14:03:32;21.37;54.19
68990;DHT22;56046;47.270;11.368;2022-10-16T14:06:01;21.33;54.81
68990;DHT22;56046;47.270;11.368;2022-10-16T14:08:28;21.29;54.11
68990;DHT22;56046;47.270;11.368;2022-10-16T14:10:56;21.36;54.08
68990;DHT22;56046;47.270;11.368;2022-10-16T14:13:37;21.37;54.65
68990;DHT22;56046;47.270;11.368;2022-10-16T14:16:09;21.34;54.91
68990;DHT22;56046;47.270;11.368;2022-10-16T14:18:37;21.33;54.87
68990;DHT22;56046;47.270;11.368;2022-10-16T14:21:06;21.27;54.70
68990;DHT22;56046;47.270;11.368;2022-10-16T14:23:35;21.23;55.18
68990;DHT22;56046;47.270;11.368;2022-10-16T14:28:34;21.26;54.38
68990;DHT22;56046;47.270;11.368;2022-10-16T14:31:01;21.23;54.26
68990;DHT22;56046;47.270;11.368;2022-10-16T14:33:31;21.22;60.15
68990;DHT22;56046;47.270;11.368;2022-10-16T14:38:29;21.13;57.42
68990;DHT22;56046;47.270;11.368;2022-10-16T14:40:57;21.10;58.48
68990;DHT22;56046;47.270;11.368;2022-10-16T14:45:56;21.16;58.92
68990;DHT22;56046;47.270;11.368;2022-10-16T14:48:22;21.09;56.44
68990;DHT22;56046;47.270;11.368;2022-10-16T14:50:47;21.10;56.72
68990;DHT22;56046;47.270;11.368;2022-10-16T14:53:14;21.07;57.07
68990;DHT22;56046;47.270;11.368;2022-10-16T14:55:40;20.95;56.71
68990;DHT22;56046;47.270;11.368;2022-10-16T14:58:15;20.94;56.21
68990;DHT22;56046;47.270;11.368;2022-10-16T15:00:41;20.91;57.18
68990;DHT22;56046;47.270;11.368;2022-10-16T15:03:07;20.82;57.62
68990;DHT22;56046;47.270;11.368;2022-10-16T15:05:32;20.78;58.16
68990;DHT22;56046;47.270;11.368;2022-10-16T15:07:58;20.69;57.97
68990;DHT22;56046;47.270;11.368;2022-10-16T15:10:26;20.63;61.36
68990;DHT22;56046;47.270;11.368;2022-10-16T15:12:52;20.41;63.20
68990;DHT22;56046;47.270;11.368;2022-10-16T15:17:50;20.02;63.53
68990;DHT22;56046;47.270;11.368;2022-10-16T15:20:19;19.86;64.60
68990;DHT22;56046;47.270;11.368;2022-10-16T15:22:44;19.69;65.64
68990;DHT22;56046;47.270;11.368;2022-10-16T15:25:38;19.66;64.87
68990;DHT22;56046;47.270;11.368;2022-10-16T15:28:08;19.47;65.99
68990;DHT22;56046;47.270;11.368;2022-10-16T15:30:35;19.35;66.82
68990;DHT22;56046;47.270;11.368;2022-10-16T15:33:01;19.26;67.50
68990;DHT22;56046;47.270;11.368;2022-10-16T15:35:27;19.14;68.25
68990;DHT22;56046;47.270;11.368;2022-10-16T15:37:52;18.95;68.27
68990;DHT22;56046;47.270;11.368;2022-10-16T15:40:19;18.79;69.32
68990;DHT22;56046;47.270;11.368;2022-10-16T15:42:45;18.56;70.81
68990;DHT22;56046;47.270;11.368;2022-10-16T15:45:11;18.33;71.28
68990;DHT22;56046;47.270;11.368;2022-10-16T15:47:37;18.20;71.55
68990;DHT22;56046;47.270;11.368;2022-10-16T15:50:04;18.08;71.75
68990;DHT22;56046;47.270;11.368;2022-10-16T15:52:30;17.96;71.54
68990;DHT22;56046;47.270;11.368;2022-10-16T15:54:57;17.80;72.86
68990;DHT22;56046;47.270;11.368;2022-10-16T15:57:23;17.65;72.73
68990;DHT22;56046;47.270;11.368;2022-10-16T15:59:49;17.48;74.33
68990;DHT22;56046;47.270;11.368;2022-10-16T16:02:15;17.44;74.42
68990;DHT22;56046;47.270;11.368;2022-10-16T16:04:40;17.35;74.69
68990;DHT22;56046;47.270;11.368;2022-10-16T16:07:06;17.21;75.10
68990;DHT22;56046;47.270;11.368;2022-10-16T16:09:34;17.07;75.47
68990;DHT22;56046;47.270;11.368;2022-10-16T16:12:00;16.94;75.38
68990;DHT22;56046;47.270;11.368;2022-10-16T16:14:26;16.84;76.21
68990;DHT22;56046;47.270;11.368;2022-10-16T16:16:54;16.76;76.16
68990;DHT22;56046;47.270;11.368;2022-10-16T16:19:20;16.72;75.86
68990;DHT22;56046;47.270;11.368;2022-10-16T16:21:49;16.65;76.30
68990;DHT22;56046;47.270;11.368;2022-10-16T16:24:15;16.60;76.59
68990;DHT22;56046;47.270;11.368;2022-10-16T16:26:40;16.53;76.89
68990;DHT22;56046;47.270;11.368;2022-10-16T16:29:13;16.42;77.21
68990;DHT22;56046;47.270;11.368;2022-10-16T16:31:39;16.47;76.62
68990;DHT22;56046;47.270;11.368;2022-10-16T16:34:05;16.36;77.31
68990;DHT22;56046;47.270;11.368;2022-10-16T16:36:31;16.28;77.82
68990;DHT22;56046;47.270;11.368;2022-10-16T16:38:57;16.15;78.14
68990;DHT22;56046;47.270;11.368;2022-10-16T16:41:28;16.12;77.78
68990;DHT22;56046;47.270;11.368;2022-10-16T16:43:55;16.08;77.91
68990;DHT22;56046;47.270;11.368;2022-10-16T16:46:26;16.01;77.94
68990;DHT22;56046;47.270;11.368;2022-10-16T16:48:51;16.00;78.28
68990;DHT22;56046;47.270;11.368;2022-10-16T16:51:20;15.91;78.61
68990;DHT22;56046;47.270;11.368;2022-10-16T16:53:49;15.83;79.33
68990;DHT22;56046;47.270;11.368;2022-10-16T16:56:15;15.82;79.41
68990;DHT22;56046;47.270;11.368;2022-10-16T16:58:44;15.74;79.28
68990;DHT22;56046;47.270;11.368;2022-10-16T17:01:10;15.70;79.76
68990;DHT22;56046;47.270;11.368;2022-10-16T17:03:36;15.67;79.67
68990;DHT22;56046;47.270;11.368;2022-10-16T17:06:04;15.62;80.22
68990;DHT22;56046;47.270;11.368;2022-10-16T17:08:30;15.63;79.28
68990;DHT22;56046;47.270;11.368;2022-10-16T17:10:57;15.52;80.16
68990;DHT22;56046;47.270;11.368;2022-10-16T17:13:24;15.40;80.39
68990;DHT22;56046;47.270;11.368;2022-10-16T17:15:51;15.43;80.02
68990;DHT22;56046;47.270;11.368;2022-10-16T17:18:18;15.40;80.46
68990;DHT22;56046;47.270;11.368;2022-10-16T17:20:46;15.34;80.27
68990;DHT22;56046;47.270;11.368;2022-10-16T17:23:13;15.46;79.86
68990;DHT22;56046;47.270;11.368;2022-10-16T17:25:40;15.46;79.87
68990;DHT22;56046;47.270;11.368;2022-10-16T17:28:07;15.36;79.85
68990;DHT22;56046;47.270;11.368;2022-10-16T17:30:37;15.27;80.32